Time;durP1;ratioP1;P1;durP2;ratioP2;P2;SDS_P1;SDS_P2;PMS_P1;PMS_P2;Temp;Humidity;BMP_temperature;BMP_pressure;BME280_temperature;BME280_humidity;BME280_pressure;Samples;Min_cycle;Max_cycle;Signal;HPM_P1;HPM_P2
2023/07/07 00:02:29;;;;;;;13.85;12.65;;;;;;;;;;10236813;28;20072;-72
2023/07/07 00:07:25;;;;;;;13.32;12.20;;;;;;;;;;10225278;28;20052;-71
2023/07/07 00:12:21;;;;;;;15.30;13.88;;;;;;;;;;10225752;28;20053;-68
2023/07/07 00:17:18;;;;;;;13.07;11.90;;;;;;;;;;10237093;28;20041;-71
2023/07/07 00:22:14;;;;;;;13.98;12.77;;;;;;;;;;10224597;28;20079;-72
2023/07/07 00:27:10;;;;;;;14.48;13.18;;;;;;;;;;10230634;28;20502;-71
2023/07/07 00:32:07;;;;;;;13.35;12.13;;;;;;;;;;10224952;28;20060;-71
2023/07/07 00:37:03;;;;;;;13.73;12.55;;;;;;;;;;10228804;28;20569;-68
2023/07/07 00:42:00;;;;;;;13.40;12.30;;;;;;;;;;10229203;28;20045;-68
2023/07/07 00:46:56;;;;;;;13.40;12.15;;;;;;;;;;10235613;28;20056;-72
2023/07/07 00:51:56;;;;;;;14.30;13.20;;;;;;;;;;10226413;28;20171;-72
2023/07/07 00:56:54;;;;;;;14.68;13.45;;;;;;;;;;10220352;28;20423;-67
2023/07/07 01:01:52;;;;;;;14.05;12.95;;;;;;;;;;10229397;28;20053;-72
2023/07/07 01:06:49;;;;;;;15.00;13.70;;;;;;;;;;10225049;28;20420;-68
2023/07/07 01:11:46;;;;;;;14.57;13.30;;;;;;;;;;10222006;28;20298;-68
2023/07/07 01:16:48;;;;;;;13.93;12.73;;;;;;;;;;10223043;28;20660;-71
2023/07/07 01:21:51;;;;;;;14.48;13.07;;;;;;;;;;10230372;28;20052;-72
2023/07/07 01:26:59;;;;;;;13.88;12.57;;;;;;;;;;10217466;28;20045;-71
2023/07/07 01:31:59;;;;;;;14.77;13.45;;;;;;;;;;10221105;28;20053;-70
2023/07/07 01:36:55;;;;;;;14.30;13.05;;;;;;;;;;10239770;28;20056;-70
2023/07/07 01:42:06;;;;;;;14.43;13.30;;;;;;;;;;10234883;28;20053;-70
2023/07/07 01:47:02;;;;;;;15.15;13.85;;;;;;;;;;10218461;28;20083;-70
2023/07/07 01:52:01;;;;;;;14.10;12.95;;;;;;;;;;10230979;28;20056;-70
2023/07/07 01:56:58;;;;;;;15.65;14.45;;;;;;;;;;10233953;28;20045;-70
2023/07/07 02:01:55;;;;;;;15.82;14.57;;;;;;;;;;10225444;28;20065;-70
2023/07/07 02:06:52;;;;;;;15.30;13.90;;;;;;;;;;10221142;28;20057;-68
2023/07/07 02:11:48;;;;;;;14.65;13.27;;;;;;;;;;10221319;28;20488;-70
2023/07/07 02:16:44;;;;;;;14.70;13.40;;;;;;;;;;10234805;28;20064;-70
2023/07/07 02:21:41;;;;;;;14.63;13.52;;;;;;;;;;10225355;28;20053;-68
2023/07/07 02:26:37;;;;;;;14.50;13.20;;;;;;;;;;10223944;28;20486;-68
2023/07/07 02:31:33;;;;;;;14.75;13.45;;;;;;;;;;10225591;28;20112;-68
2023/07/07 02:36:30;;;;;;;14.90;13.68;;;;;;;;;;10225084;28;20053;-69
2023/07/07 02:41:26;;;;;;;15.07;13.77;;;;;;;;;;10222314;28;20057;-68
2023/07/07 02:46:22;;;;;;;14.35;13.35;;;;;;;;;;10223522;28;20046;-70
2023/07/07 02:51:18;;;;;;;14.43;13.23;;;;;;;;;;10229243;28;20128;-70
2023/07/07 02:56:15;;;;;;;14.68;13.63;;;;;;;;;;10224789;28;20553;-70
2023/07/07 03:01:16;;;;;;;15.57;14.27;;;;;;;;;;10226789;28;20080;-69
2023/07/07 03:06:15;;;;;;;14.77;13.67;;;;;;;;;;10216877;28;20642;-70
2023/07/07 03:11:13;;;;;;;14.88;13.70;;;;;;;;;;10223729;28;20136;-69
2023/07/07 03:16:14;;;;;;;16.30;15.00;;;;;;;;;;10215567;28;20062;-69
2023/07/07 03:21:10;;;;;;;15.95;14.55;;;;;;;;;;10226351;28;20050;-69
2023/07/07 03:26:08;;;;;;;15.95;13.80;;;;;;;;;;10215640;28;20066;-69
2023/07/07 03:31:11;;;;;;;15.73;14.52;;;;;;;;;;10225392;28;20084;-69
2023/07/07 03:36:10;;;;;;;15.27;13.90;;;;;;;;;;10221051;28;20042;-69
2023/07/07 03:41:08;;;;;;;14.88;13.52;;;;;;;;;;10219211;28;20688;-69
2023/07/07 03:46:05;;;;;;;16.00;14.63;;;;;;;;;;10215276;28;20042;-69
2023/07/07 03:51:02;;;;;;;17.55;16.17;;;;;;;;;;10223356;28;20049;-69
2023/07/07 03:55:59;;;;;;;17.27;15.55;;;;;;;;;;10228025;28;20111;-70
2023/07/07 04:00:59;;;;;;;16.15;14.90;;;;;;;;;;10223363;28;20876;-70
2023/07/07 04:05:56;;;;;;;16.45;14.95;;;;;;;;;;10214942;28;20057;-69
2023/07/07 04:10:59;;;;;;;15.13;13.82;;;;;;;;;;10205585;28;20046;-69
2023/07/07 04:15:57;;;;;;;16.20;14.80;;;;;;;;;;10223091;28;20095;-69
2023/07/07 04:20:53;;;;;;;16.00;14.85;;;;;;;;;;10218953;28;20715;-69
2023/07/07 04:25:50;;;;;;;16.60;15.20;;;;;;;;;;10217524;28;20049;-69
2023/07/07 04:30:50;;;;;;;16.30;14.90;;;;;;;;;;10226047;28;20038;-68
2023/07/07 04:35:51;;;;;;;16.00;14.70;;;;;;;;;;10221628;28;20041;-68
2023/07/07 04:40:47;;;;;;;16.75;15.25;;;;;;;;;;10231373;28;20061;-68
2023/07/07 04:45:44;;;;;;;18.15;16.73;;;;;;;;;;10226064;28;20045;-68
2023/07/07 04:50:40;;;;;;;18.00;16.35;;;;;;;;;;10211801;28;20068;-68
2023/07/07 04:55:43;;;;;;;16.45;15.15;;;;;;;;;;10214842;28;20552;-69
2023/07/07 05:00:39;;;;;;;16.25;14.75;;;;;;;;;;10219649;28;20050;-71
2023/07/07 05:05:36;;;;;;;17.13;15.52;;;;;;;;;;10222430;28;20396;-71
2023/07/07 05:10:32;;;;;;;16.15;14.65;;;;;;;;;;10213824;28;20171;-70
2023/07/07 05:15:30;;;;;;;16.77;15.23;;;;;;;;;;10221688;28;20541;-71
2023/07/07 05:20:26;;;;;;;15.20;13.98;;;;;;;;;;10224926;28;20045;-71
2023/07/07 05:25:23;;;;;;;15.90;14.60;;;;;;;;;;10220633;28;20040;-69
2023/07/07 05:30:19;;;;;;;14.82;13.63;;;;;;;;;;10212980;28;20081;-71
2023/07/07 05:35:15;;;;;;;15.85;14.63;;;;;;;;;;10229484;28;20559;-71
2023/07/07 05:40:12;;;;;;;23.58;13.70;;;;;;;;;;10230726;28;20754;-71
2023/07/07 05:45:10;;;;;;;36.40;17.00;;;;;;;;;;10228946;28;20045;-71
2023/07/07 05:50:08;;;;;;;23.15;15.65;;;;;;;;;;10221192;28;20054;-73
2023/07/07 05:55:05;;;;;;;19.48;12.13;;;;;;;;;;10217221;28;20053;-70
2023/07/07 06:00:02;;;;;;;15.18;11.98;;;;;;;;;;10226036;28;20046;-70
2023/07/07 06:04:58;;;;;;;13.95;11.93;;;;;;;;;;10227084;28;20077;-71
2023/07/07 06:09:57;;;;;;;21.80;12.35;;;;;;;;;;10224882;28;20046;-72
2023/07/07 06:14:54;;;;;;;9.38;8.48;;;;;;;;;;10226192;28;20083;-72
2023/07/07 06:19:50;;;;;;;9.60;8.80;;;;;;;;;;10207062;28;20458;-72
2023/07/07 06:24:47;;;;;;;9.70;8.57;;;;;;;;;;10216641;28;20030;-72
2023/07/07 06:29:43;;;;;;;9.02;8.23;;;;;;;;;;10223582;28;20072;-71
2023/07/07 06:34:40;;;;;;;9.88;8.98;;;;;;;;;;10214390;28;20511;-71
2023/07/07 06:39:36;;;;;;;10.05;9.05;;;;;;;;;;10216987;28;20049;-71
2023/07/07 06:44:32;;;;;;;10.80;9.70;;;;;;;;;;10220592;28;20041;-74
2023/07/07 06:49:29;;;;;;;10.93;9.20;;;;;;;;;;10218010;28;20049;-73
2023/07/07 06:54:25;;;;;;;9.63;8.60;;;;;;;;;;10220936;28;20052;-74
2023/07/07 06:59:22;;;;;;;9.38;8.57;;;;;;;;;;10227546;28;20046;-73
2023/07/07 07:04:18;;;;;;;12.15;9.75;;;;;;;;;;10225450;28;20110;-74
2023/07/07 07:09:14;;;;;;;10.25;9.35;;;;;;;;;;10217115;28;20100;-74
2023/07/07 07:14:11;;;;;;;9.77;8.77;;;;;;;;;;10222951;28;20046;-74
2023/07/07 07:19:07;;;;;;;10.57;9.30;;;;;;;;;;10211919;28;20405;-73
2023/07/07 07:24:04;;;;;;;9.82;8.18;;;;;;;;;;10219298;28;20044;-73
2023/07/07 07:29:00;;;;;;;8.90;8.10;;;;;;;;;;10217666;28;20038;-74
2023/07/07 07:34:16;;;;;;;9.55;8.35;;;;;;;;;;10208348;28;20066;-73
2023/07/07 07:39:12;;;;;;;9.57;8.68;;;;;;;;;;10226351;28;20072;-74
2023/07/07 07:44:09;;;;;;;9.30;8.18;;;;;;;;;;10215062;28;20060;-74
2023/07/07 07:49:05;;;;;;;8.68;7.82;;;;;;;;;;10225312;28;20461;-73
2023/07/07 07:54:02;;;;;;;9.18;8.02;;;;;;;;;;10222201;28;20049;-74
2023/07/07 07:58:58;;;;;;;9.00;7.38;;;;;;;;;;10229130;28;20099;-73
2023/07/07 08:03:54;;;;;;;8.73;7.15;;;;;;;;;;10222328;28;20045;-74
2023/07/07 08:08:51;;;;;;;8.23;7.50;;;;;;;;;;10226543;28;20156;-73
2023/07/07 08:13:47;;;;;;;16.42;9.13;;;;;;;;;;10215809;28;20152;-73
2023/07/07 08:18:43;;;;;;;9.90;8.40;;;;;;;;;;10226036;28;20076;-73
2023/07/07 08:23:40;;;;;;;8.90;7.95;;;;;;;;;;10224401;28;20052;-74
2023/07/07 08:28:36;;;;;;;8.65;7.78;;;;;;;;;;10223706;28;20050;-73
2023/07/07 08:33:44;;;;;;;8.80;7.82;;;;;;;;;;10221364;28;20041;-73
2023/07/07 08:38:53;;;;;;;9.07;7.82;;;;;;;;;;10228291;28;20559;-73
2023/07/07 08:43:53;;;;;;;23.35;9.55;;;;;;;;;;10227753;28;20111;-73
2023/07/07 08:48:53;;;;;;;7.72;6.95;;;;;;;;;;10215177;28;20057;-73
2023/07/07 08:53:55;;;;;;;10.32;7.13;;;;;;;;;;10210460;28;20045;-73
2023/07/07 08:59:12;;;;;;;8.25;7.50;;;;;;;;;;10229876;28;20057;-74
2023/07/07 09:04:12;;;;;;;9.25;7.50;;;;;;;;;;10223742;28;20573;-74
2023/07/07 09:09:21;;;;;;;8.95;7.70;;;;;;;;;;10222823;28;20515;-74
2023/07/07 09:14:18;;;;;;;8.57;7.75;;;;;;;;;;10221417;28;20112;-74
2023/07/07 09:19:17;;;;;;;9.43;8.07;;;;;;;;;;10225364;28;20041;-74
2023/07/07 09:24:16;;;;;;;8.57;7.68;;;;;;;;;;10232379;28;20476;-74
2023/07/07 09:29:15;;;;;;;8.82;8.00;;;;;;;;;;10209385;28;20161;-74
2023/07/07 09:34:13;;;;;;;10.45;7.90;;;;;;;;;;10217427;28;20054;-73
2023/07/07 09:39:28;;;;;;;8.20;7.40;;;;;;;;;;10214495;28;20120;-73
2023/07/07 09:44:30;;;;;;;7.80;7.10;;;;;;;;;;10216827;28;20451;-73
2023/07/07 09:49:36;;;;;;;7.65;6.93;;;;;;;;;;10218521;28;20042;-74
2023/07/07 09:54:33;;;;;;;7.70;6.90;;;;;;;;;;10209052;28;20041;-74
2023/07/07 09:59:35;;;;;;;7.00;6.40;;;;;;;;;;10222829;28;20064;-74
2023/07/07 10:04:32;;;;;;;8.02;7.22;;;;;;;;;;10209333;28;20037;-74
2023/07/07 10:09:31;;;;;;;31.80;8.38;;;;;;;;;;10225620;28;20046;-74
2023/07/07 10:14:29;;;;;;;7.50;6.80;;;;;;;;;;10209836;28;20046;-74
2023/07/07 10:19:26;;;;;;;7.70;7.00;;;;;;;;;;10221070;28;20050;-74
2023/07/07 10:24:23;;;;;;;7.40;6.80;;;;;;;;;;10218118;28;20038;-74
2023/07/07 10:29:22;;;;;;;9.43;8.10;;;;;;;;;;10225048;28;20176;-74
2023/07/07 10:34:35;;;;;;;9.13;7.80;;;;;;;;;;10227734;28;20103;-75
2023/07/07 10:39:32;;;;;;;7.80;7.20;;;;;;;;;;10211061;28;20046;-74
2023/07/07 10:44:28;;;;;;;8.32;7.53;;;;;;;;;;10222267;28;20080;-74
2023/07/07 10:49:26;;;;;;;7.82;7.13;;;;;;;;;;10226177;28;20045;-74
2023/07/07 10:54:23;;;;;;;8.50;7.78;;;;;;;;;;10227928;28;20045;-74
2023/07/07 10:59:31;;;;;;;9.02;7.28;;;;;;;;;;10220254;28;20128;-74
2023/07/07 11:04:33;;;;;;;8.63;7.68;;;;;;;;;;10214738;28;20041;-74
2023/07/07 11:09:44;;;;;;;10.05;8.13;;;;;;;;;;10203612;28;20519;-74
2023/07/07 11:14:45;;;;;;;8.70;7.77;;;;;;;;;;10217545;28;20578;-74
2023/07/07 11:19:54;;;;;;;8.57;7.78;;;;;;;;;;10222508;28;20112;-74
2023/07/07 11:24:55;;;;;;;8.88;8.07;;;;;;;;;;10219102;28;20452;-72
2023/07/07 11:30:11;;;;;;;8.07;7.28;;;;;;;;;;10222369;28;20570;-72
2023/07/07 11:35:11;;;;;;;7.90;7.20;;;;;;;;;;10220559;28;20148;-72
2023/07/07 11:40:07;;;;;;;7.95;7.35;;;;;;;;;;10222706;28;20038;-71
2023/07/07 11:45:22;;;;;;;10.65;9.65;;;;;;;;;;10210298;28;20049;-71
2023/07/07 11:50:36;;;;;;;8.77;7.95;;;;;;;;;;10214801;28;20103;-72
2023/07/07 11:55:32;;;;;;;8.95;8.20;;;;;;;;;;10210564;28;20499;-72
2023/07/07 12:00:31;;;;;;;8.88;8.07;;;;;;;;;;10214135;28;20076;-71
2023/07/07 12:05:30;;;;;;;9.85;7.70;;;;;;;;;;10210817;28;20451;-71
2023/07/07 12:10:30;;;;;;;8.20;7.50;;;;;;;;;;10214110;28;20095;-72
2023/07/07 12:15:37;;;;;;;8.82;7.70;;;;;;;;;;10218868;28;20061;-71
2023/07/07 12:20:36;;;;;;;8.27;7.57;;;;;;;;;;10215217;28;20499;-73
2023/07/07 12:25:33;;;;;;;8.50;7.80;;;;;;;;;;10210821;28;20042;-72
2023/07/07 12:30:30;;;;;;;8.10;7.50;;;;;;;;;;10224308;28;20558;-72
2023/07/07 12:35:41;;;;;;;8.35;7.55;;;;;;;;;;10215639;28;20046;-72
2023/07/07 12:40:40;;;;;;;7.68;7.07;;;;;;;;;;10210141;28;20103;-71
2023/07/07 12:45:37;;;;;;;8.80;7.95;;;;;;;;;;10221317;28;20046;-71
2023/07/07 12:50:36;;;;;;;7.82;7.03;;;;;;;;;;10226575;28;20046;-72
2023/07/07 12:55:36;;;;;;;8.90;6.95;;;;;;;;;;10210805;28;20049;-72
2023/07/07 13:00:37;;;;;;;7.53;6.82;;;;;;;;;;10223198;28;20069;-72
2023/07/07 13:05:33;;;;;;;7.57;6.60;;;;;;;;;;10221741;28;20896;-72
2023/07/07 13:10:44;;;;;;;7.30;6.68;;;;;;;;;;10234688;28;20072;-72
2023/07/07 13:15:41;;;;;;;6.93;6.33;;;;;;;;;;10222924;28;20065;-72
2023/07/07 13:20:38;;;;;;;6.63;6.00;;;;;;;;;;10217238;28;20112;-72
2023/07/07 13:25:35;;;;;;;6.40;5.80;;;;;;;;;;10215875;28;20049;-72
2023/07/07 13:30:33;;;;;;;7.32;6.63;;;;;;;;;;10218852;28;20037;-72
2023/07/07 13:35:29;;;;;;;6.78;6.05;;;;;;;;;;10222014;28;20049;-72
2023/07/07 13:40:26;;;;;;;6.90;6.20;;;;;;;;;;10214381;28;20037;-72
2023/07/07 13:45:23;;;;;;;7.68;6.88;;;;;;;;;;10208279;28;20053;-72
2023/07/07 13:50:24;;;;;;;6.97;6.28;;;;;;;;;;10222974;28;20099;-72
2023/07/07 13:55:21;;;;;;;6.78;6.07;;;;;;;;;;10221435;28;20103;-72
2023/07/07 14:00:26;;;;;;;6.65;6.05;;;;;;;;;;10226715;28;20050;-72
2023/07/07 14:05:23;;;;;;;6.68;5.97;;;;;;;;;;10217597;28;20820;-73
2023/07/07 14:10:30;;;;;;;6.43;5.82;;;;;;;;;;10214952;28;20463;-72
2023/07/07 14:15:37;;;;;;;6.43;5.82;;;;;;;;;;10221888;28;20068;-72
2023/07/07 14:20:37;;;;;;;6.90;6.22;;;;;;;;;;10228741;28;20068;-73
2023/07/07 14:25:38;;;;;;;6.82;5.75;;;;;;;;;;10226165;28;20045;-73
2023/07/07 14:30:36;;;;;;;7.00;6.40;;;;;;;;;;10227170;28;20136;-73
2023/07/07 14:35:33;;;;;;;7.10;6.40;;;;;;;;;;10205658;28;20136;-72
2023/07/07 14:40:31;;;;;;;6.85;6.25;;;;;;;;;;10212818;28;20042;-73
2023/07/07 14:45:33;;;;;;;6.65;6.05;;;;;;;;;;10210231;28;20046;-73
2023/07/07 14:50:30;;;;;;;6.93;6.28;;;;;;;;;;10213449;28;20100;-72
2023/07/07 14:55:29;;;;;;;6.78;6.18;;;;;;;;;;10225867;28;20053;-72
2023/07/07 15:00:25;;;;;;;6.93;6.22;;;;;;;;;;10218679;28;20049;-72
2023/07/07 15:05:24;;;;;;;7.03;6.32;;;;;;;;;;10223473;28;20572;-72
2023/07/07 15:10:21;;;;;;;6.70;6.00;;;;;;;;;;10215418;28;20073;-72
2023/07/07 15:15:17;;;;;;;6.70;6.00;;;;;;;;;;10219587;28;20454;-72
2023/07/07 15:20:15;;;;;;;6.43;5.82;;;;;;;;;;10214225;28;20052;-73
2023/07/07 15:25:12;;;;;;;7.40;6.60;;;;;;;;;;10221718;28;20050;-72
2023/07/07 15:30:16;;;;;;;6.63;6.10;;;;;;;;;;10216477;28;20115;-71
2023/07/07 15:35:13;;;;;;;6.80;5.90;;;;;;;;;;10222542;28;20112;-72
2023/07/07 15:40:12;;;;;;;6.85;6.05;;;;;;;;;;10223686;28;20104;-72
2023/07/07 15:45:10;;;;;;;6.25;5.65;;;;;;;;;;10218044;28;20183;-72
2023/07/07 15:50:18;;;;;;;6.60;5.95;;;;;;;;;;10226463;28;20054;-72
2023/07/07 15:55:15;;;;;;;7.25;5.85;;;;;;;;;;10224742;28;20049;-72
2023/07/07 16:00:17;;;;;;;7.18;6.57;;;;;;;;;;10214979;28;20049;-72
2023/07/07 16:05:14;;;;;;;7.13;6.43;;;;;;;;;;10223693;28;20539;-72
2023/07/07 16:10:11;;;;;;;8.45;7.53;;;;;;;;;;10216587;28;20137;-72
2023/07/07 16:15:08;;;;;;;8.60;7.80;;;;;;;;;;10220431;28;20053;-72
2023/07/07 16:20:24;;;;;;;8.23;7.50;;;;;;;;;;10230632;28;20068;-72
2023/07/07 16:25:21;;;;;;;8.43;7.72;;;;;;;;;;10208277;28;20053;-72
2023/07/07 16:30:26;;;;;;;7.88;7.28;;;;;;;;;;10221228;28;20053;-72
2023/07/07 16:35:23;;;;;;;8.00;7.32;;;;;;;;;;10225307;28;20045;-72
2023/07/07 16:40:21;;;;;;;8.68;7.97;;;;;;;;;;10216951;28;20056;-72
2023/07/07 16:45:17;;;;;;;9.10;8.30;;;;;;;;;;10224289;28;20502;-72
2023/07/07 16:50:19;;;;;;;8.45;7.50;;;;;;;;;;10219420;28;20128;-72
2023/07/07 16:55:15;;;;;;;8.05;7.35;;;;;;;;;;10219915;28;20064;-72
2023/07/07 17:00:19;;;;;;;8.63;7.72;;;;;;;;;;10217889;28;20046;-72
2023/07/07 17:05:17;;;;;;;9.10;7.45;;;;;;;;;;10224832;28;20091;-72
2023/07/07 17:10:28;;;;;;;7.53;6.72;;;;;;;;;;10232487;28;20054;-71
2023/07/07 17:15:25;;;;;;;7.00;6.40;;;;;;;;;;10217453;28;20411;-72
2023/07/07 17:20:22;;;;;;;9.27;6.40;;;;;;;;;;10226853;28;20190;-72
2023/07/07 17:25:19;;;;;;;6.50;5.90;;;;;;;;;;10222744;28;20045;-72
2023/07/07 17:30:17;;;;;;;7.45;6.75;;;;;;;;;;10216080;28;20037;-72
2023/07/07 17:35:14;;;;;;;8.43;6.22;;;;;;;;;;10218692;28;20077;-73
2023/07/07 17:40:18;;;;;;;7.10;6.40;;;;;;;;;;10219040;28;20111;-72
2023/07/07 17:45:15;;;;;;;8.70;7.45;;;;;;;;;;10216889;28;20099;-72
2023/07/07 17:50:30;;;;;;;8.00;7.20;;;;;;;;;;10215202;28;20096;-72
2023/07/07 17:55:27;;;;;;;8.27;7.47;;;;;;;;;;10222778;28;20053;-72
2023/07/07 18:00:24;;;;;;;7.72;7.03;;;;;;;;;;10210799;28;20058;-71
2023/07/07 18:05:21;;;;;;;8.68;6.68;;;;;;;;;;10223848;28;22093;-73
2023/07/07 18:10:19;;;;;;;6.90;6.20;;;;;;;;;;10217402;28;20484;-72
2023/07/07 18:15:16;;;;;;;7.38;6.68;;;;;;;;;;10224062;28;20045;-71
2023/07/07 18:20:29;;;;;;;6.93;6.22;;;;;;;;;;10218526;28;20525;-71
2023/07/07 18:25:45;;;;;;;8.57;5.90;;;;;;;;;;10213250;28;20038;-72
2023/07/07 18:30:45;;;;;;;12.50;7.88;;;;;;;;;;10213361;28;20033;-72
2023/07/07 18:35:41;;;;;;;7.47;6.05;;;;;;;;;;10220086;28;20069;-72
2023/07/07 18:40:38;;;;;;;7.47;6.05;;;;;;;;;;10219983;28;20049;-72
2023/07/07 18:45:35;;;;;;;7.25;6.07;;;;;;;;;;10208051;28;20056;-73
2023/07/07 18:50:33;;;;;;;7.78;6.70;;;;;;;;;;10221858;28;20133;-71
2023/07/07 18:55:29;;;;;;;10.13;6.90;;;;;;;;;;10220967;28;20461;-71
2023/07/07 19:00:33;;;;;;;8.45;7.20;;;;;;;;;;10218188;28;20125;-71
2023/07/07 19:05:30;;;;;;;7.38;6.03;;;;;;;;;;10216957;28;20047;-71
2023/07/07 19:10:33;;;;;;;11.18;6.28;;;;;;;;;;10221166;28;21274;-71
2023/07/07 19:15:30;;;;;;;6.32;5.72;;;;;;;;;;10225446;28;20068;-71
2023/07/07 19:20:26;;;;;;;6.68;6.03;;;;;;;;;;10211691;28;20781;-71
2023/07/07 19:25:22;;;;;;;6.80;5.57;;;;;;;;;;10216534;28;20053;-71
2023/07/07 19:30:19;;;;;;;6.03;5.43;;;;;;;;;;10213713;28;20099;-72
2023/07/07 19:35:15;;;;;;;7.60;6.25;;;;;;;;;;10224760;28;20107;-71
2023/07/07 19:40:16;;;;;;;6.30;5.70;;;;;;;;;;10211434;28;20069;-71
2023/07/07 19:45:12;;;;;;;9.30;6.13;;;;;;;;;;10220196;28;20041;-71
2023/07/07 19:50:15;;;;;;;6.63;5.93;;;;;;;;;;10234378;28;20095;-71
2023/07/07 19:55:12;;;;;;;6.70;6.00;;;;;;;;;;10229305;28;20076;-71
2023/07/07 20:00:21;;;;;;;7.90;6.15;;;;;;;;;;10233611;28;20057;-71
2023/07/07 20:05:18;;;;;;;7.43;5.55;;;;;;;;;;10221318;28;20061;-71
2023/07/07 20:10:15;;;;;;;8.85;5.53;;;;;;;;;;10215889;28;20088;-71
2023/07/07 20:15:11;;;;;;;6.80;5.95;;;;;;;;;;10228717;28;20053;-71
2023/07/07 20:20:15;;;;;;;6.80;6.15;;;;;;;;;;10227201;28;20044;-71
2023/07/07 20:25:13;;;;;;;6.88;6.28;;;;;;;;;;10225901;28;20045;-72
2023/07/07 20:30:19;;;;;;;8.05;6.22;;;;;;;;;;10219470;28;20080;-71
2023/07/07 20:35:15;;;;;;;9.90;5.93;;;;;;;;;;10212637;28;20069;-71
2023/07/07 20:40:38;;;;;;;7.97;6.47;;;;;;;;;;10221919;28;20056;-71
2023/07/07 20:45:35;;;;;;;7.45;6.00;;;;;;;;;;10218464;28;20038;-72
2023/07/07 20:50:34;;;;;;;8.77;6.53;;;;;;;;;;10218250;28;20034;-71
2023/07/07 20:55:33;;;;;;;9.90;6.30;;;;;;;;;;10228539;28;20084;-72
2023/07/07 21:00:34;;;;;;;9.35;6.25;;;;;;;;;;10234714;28;20101;-71
2023/07/07 21:05:31;;;;;;;7.07;6.38;;;;;;;;;;10215405;28;20052;-71
2023/07/07 21:10:32;;;;;;;7.07;6.22;;;;;;;;;;10222883;28;20116;-72
2023/07/07 21:15:28;;;;;;;7.63;6.88;;;;;;;;;;10219327;28;20515;-71
2023/07/07 21:20:32;;;;;;;10.55;6.32;;;;;;;;;;10224941;28;20045;-71
2023/07/07 21:25:28;;;;;;;8.70;6.57;;;;;;;;;;10222566;28;20041;-73
2023/07/07 21:30:25;;;;;;;9.38;5.90;;;;;;;;;;10220530;28;20049;-71
2023/07/07 21:35:21;;;;;;;8.80;6.60;;;;;;;;;;10219839;28;20057;-71
2023/07/07 21:40:19;;;;;;;8.35;6.32;;;;;;;;;;10219218;28;20076;-72
2023/07/07 21:45:20;;;;;;;8.32;6.13;;;;;;;;;;10226593;28;20052;-72
2023/07/07 21:50:18;;;;;;;7.73;6.60;;;;;;;;;;10224613;28;20088;-73
2023/07/07 21:55:14;;;;;;;9.77;6.80;;;;;;;;;;10211091;28;20049;-72
2023/07/07 22:00:21;;;;;;;9.10;7.03;;;;;;;;;;10226539;28;20682;-72
2023/07/07 22:05:21;;;;;;;7.45;6.40;;;;;;;;;;10218626;28;20049;-72
2023/07/07 22:10:30;;;;;;;8.65;6.43;;;;;;;;;;10218127;28;20056;-72
2023/07/07 22:15:26;;;;;;;7.38;6.20;;;;;;;;;;10219845;28;20115;-72
2023/07/07 22:20:23;;;;;;;9.38;6.55;;;;;;;;;;10223199;28;20049;-72
2023/07/07 22:25:19;;;;;;;8.75;6.50;;;;;;;;;;10219174;28;20046;-72
2023/07/07 22:30:21;;;;;;;7.90;7.20;;;;;;;;;;10220964;28;20061;-72
2023/07/07 22:35:18;;;;;;;7.55;6.78;;;;;;;;;;10215734;28;20723;-72
2023/07/07 22:40:19;;;;;;;7.70;6.82;;;;;;;;;;10217909;28;20050;-72
2023/07/07 22:45:15;;;;;;;9.60;6.65;;;;;;;;;;10214580;28;20467;-72
2023/07/07 22:50:16;;;;;;;7.82;7.03;;;;;;;;;;10213498;28;20046;-72
2023/07/07 22:55:14;;;;;;;9.27;6.90;;;;;;;;;;10225820;28;20709;-72
2023/07/07 23:00:13;;;;;;;11.05;6.97;;;;;;;;;;10215826;28;20499;-72
2023/07/07 23:05:11;;;;;;;7.65;6.82;;;;;;;;;;10224635;28;20111;-72
2023/07/07 23:10:10;;;;;;;9.10;6.30;;;;;;;;;;10218489;28;20419;-72
2023/07/07 23:15:07;;;;;;;8.73;7.03;;;;;;;;;;10221194;28;20199;-72
2023/07/07 23:20:15;;;;;;;8.35;6.97;;;;;;;;;;10219964;28;20065;-72
2023/07/07 23:25:12;;;;;;;7.97;7.28;;;;;;;;;;10208497;28;20503;-73
2023/07/07 23:30:16;;;;;;;8.55;7.63;;;;;;;;;;10216442;28;20089;-72
2023/07/07 23:35:12;;;;;;;9.30;7.18;;;;;;;;;;10219357;28;20049;-72
2023/07/07 23:40:27;;;;;;;9.85;7.47;;;;;;;;;;10218619;28;20053;-72
2023/07/07 23:45:24;;;;;;;13.13;7.90;;;;;;;;;;10217058;28;20041;-73
2023/07/07 23:50:25;;;;;;;8.45;7.75;;;;;;;;;;10221107;28;20710;-72
2023/07/07 23:55:23;;;;;;;9.98;7.72;;;;;;;;;;10211477;28;20061;-72
